Time;durP1;ratioP1;P1;durP2;ratioP2;P2;SDS_P1;SDS_P2;PMS_P1;PMS_P2;Temp;Humidity;BMP_temperature;BMP_pressure;BME280_temperature;BME280_humidity;BME280_pressure;Samples;Min_cycle;Max_cycle;Signal;HPM_P1;HPM_P2
2022/09/09 00:01:51;;;;;;;15.50;7.72;;;21.40;99.90;;;;;;5011801;28;20046;-67
2022/09/09 00:04:32;;;;;;;15.65;8.60;;;21.30;99.90;;;;;;5011621;28;20049;-67
2022/09/09 00:07:04;;;;;;;13.65;7.30;;;21.30;99.90;;;;;;5011676;28;20092;-68
2022/09/09 00:09:38;;;;;;;14.20;8.15;;;21.30;99.90;;;;;;5012470;28;20384;-66
2022/09/09 00:12:15;;;;;;;16.15;8.57;;;21.20;99.90;;;;;;5011592;28;20062;-65
2022/09/09 00:15:07;;;;;;;13.38;8.02;;;21.30;99.90;;;;;;5012337;28;20030;-67
2022/09/09 00:17:44;;;;;;;15.80;8.18;;;21.30;99.90;;;;;;5011751;28;20045;-67
2022/09/09 00:20:50;;;;;;;13.88;9.02;;;21.30;99.90;;;;;;5013176;28;20036;-67
2022/09/09 00:23:29;;;;;;;17.45;9.07;;;21.30;99.90;;;;;;5012679;28;20034;-68
2022/09/09 00:26:30;;;;;;;16.10;8.98;;;21.20;99.90;;;;;;5013083;28;20025;-68
2022/09/09 00:29:19;;;;;;;16.05;8.75;;;21.30;99.90;;;;;;5025836;28;20037;-66
2022/09/09 00:31:46;;;;;;;13.15;8.18;;;21.20;99.90;;;;;;5012575;28;20026;-67
2022/09/09 00:34:17;;;;;;;15.20;8.02;;;21.20;99.90;;;;;;5012952;28;20037;-68
2022/09/09 00:36:44;;;;;;;16.13;9.27;;;21.10;99.90;;;;;;5010989;28;20057;-68
2022/09/09 00:39:37;;;;;;;14.75;8.75;;;21.10;99.90;;;;;;5012532;28;20026;-66
2022/09/09 00:42:17;;;;;;;14.82;8.40;;;21.10;99.90;;;;;;5011678;28;20030;-68
2022/09/09 00:45:23;;;;;;;16.40;8.88;;;21.00;99.90;;;;;;5012605;28;20033;-67
2022/09/09 00:47:54;;;;;;;16.25;8.60;;;21.10;99.90;;;;;;4985683;28;20397;-68
2022/09/09 00:50:52;;;;;;;16.35;8.93;;;21.00;99.90;;;;;;5010272;28;20021;-67
2022/09/09 00:53:33;;;;;;;17.02;8.55;;;21.00;99.90;;;;;;5010301;28;20076;-68
2022/09/09 00:56:21;;;;;;;13.50;8.25;;;21.00;99.90;;;;;;4993945;28;20034;-68
2022/09/09 00:59:20;;;;;;;18.70;8.10;;;21.00;99.90;;;;;;5009630;28;20129;-68
2022/09/09 01:01:46;;;;;;;13.40;8.30;;;20.80;99.90;;;;;;4998242;28;20038;-68
2022/09/09 01:04:21;;;;;;;15.68;9.25;;;20.80;99.90;;;;;;4989703;28;20046;-67
2022/09/09 01:06:52;;;;;;;16.75;9.57;;;20.80;99.90;;;;;;4990751;28;20466;-68
2022/09/09 01:09:32;;;;;;;15.75;9.18;;;20.90;99.90;;;;;;4993633;28;20359;-68
2022/09/09 01:12:00;;;;;;;16.77;8.88;;;20.90;99.90;;;;;;4990695;28;20039;-68
2022/09/09 01:14:48;;;;;;;12.80;7.30;;;21.00;99.90;;;;;;4994016;28;20022;-67
2022/09/09 01:17:18;;;;;;;15.85;8.85;;;21.00;99.90;;;;;;4993048;28;20275;-68
2022/09/09 01:20:16;;;;;;;15.18;8.23;;;21.10;99.90;;;;;;4981269;28;20022;-68
2022/09/09 01:22:52;;;;;;;15.85;8.18;;;21.10;99.90;;;;;;4989964;28;20030;-68
2022/09/09 01:25:27;;;;;;;20.48;8.50;;;21.10;99.90;;;;;;5018620;28;20395;-68
2022/09/09 01:28:09;;;;;;;13.10;8.32;;;21.10;99.90;;;;;;5010674;28;20030;-68
2022/09/09 01:30:40;;;;;;;17.30;8.90;;;21.00;99.90;;;;;;5012364;28;20026;-68
2022/09/09 01:33:14;;;;;;;14.45;8.65;;;21.10;99.90;;;;;;5020903;28;20058;-68
2022/09/09 01:35:54;;;;;;;19.23;8.80;;;21.00;99.90;;;;;;5014171;28;20026;-68
2022/09/09 01:38:23;;;;;;;18.67;8.03;;;21.10;99.90;;;;;;5019401;28;20033;-68
2022/09/09 01:40:52;;;;;;;14.63;9.05;;;21.10;99.90;;;;;;5010783;28;20757;-68
2022/09/09 01:43:22;;;;;;;15.15;8.45;;;21.00;99.90;;;;;;5017865;28;20164;-63
2022/09/09 01:45:51;;;;;;;16.48;8.40;;;21.00;99.90;;;;;;5014733;28;20113;-68
2022/09/09 01:48:18;;;;;;;13.18;7.90;;;21.00;99.90;;;;;;5011867;28;20026;-68
2022/09/09 01:50:51;;;;;;;13.32;7.68;;;21.10;99.90;;;;;;5011930;28;20021;-66
2022/09/09 01:53:19;;;;;;;22.08;9.90;;;21.10;99.90;;;;;;5010171;28;20052;-67
2022/09/09 01:56:08;;;;;;;28.77;16.35;;;21.10;99.90;;;;;;5010695;28;20022;-68
2022/09/09 01:59:00;;;;;;;27.73;12.83;;;21.10;99.90;;;;;;5034969;28;20040;-68
2022/09/09 02:01:41;;;;;;;20.25;10.63;;;21.10;99.90;;;;;;5024865;28;20103;-67
2022/09/09 02:04:38;;;;;;;16.73;8.68;;;21.10;99.90;;;;;;5025871;28;20053;-67
2022/09/09 02:07:37;;;;;;;16.65;8.90;;;21.00;99.90;;;;;;5010441;28;20042;-67
2022/09/09 02:10:22;;;;;;;14.18;7.18;;;20.90;99.90;;;;;;5023474;28;20053;-68
2022/09/09 02:13:10;;;;;;;18.08;8.02;;;20.90;99.90;;;;;;5019273;28;20025;-68
2022/09/09 02:15:49;;;;;;;14.05;7.70;;;20.90;99.90;;;;;;5016164;28;20080;-68
2022/09/09 02:18:23;;;;;;;13.70;7.60;;;20.90;99.90;;;;;;5024125;28;20520;-67
2022/09/09 02:20:51;;;;;;;12.40;7.70;;;20.90;99.90;;;;;;5023377;28;20030;-67
2022/09/09 02:23:19;;;;;;;26.33;9.52;;;20.90;99.90;;;;;;5017724;28;20072;-67
2022/09/09 02:25:48;;;;;;;16.27;7.30;;;20.90;99.90;;;;;;5026520;28;20514;-68
2022/09/09 02:28:25;;;;;;;17.00;8.95;;;20.90;99.90;;;;;;5010116;28;20387;-68
2022/09/09 02:30:54;;;;;;;12.38;7.32;;;20.90;99.90;;;;;;5016581;28;20053;-68
2022/09/09 02:33:28;;;;;;;12.65;7.53;;;20.90;99.90;;;;;;5023281;28;20467;-67
2022/09/09 02:36:01;;;;;;;15.57;7.90;;;20.80;99.90;;;;;;5014768;28;20095;-67
2022/09/09 02:38:33;;;;;;;16.52;8.57;;;20.80;99.90;;;;;;5028206;28;20033;-68
2022/09/09 02:41:06;;;;;;;14.80;7.55;;;20.70;99.90;;;;;;5026035;28;20160;-67
2022/09/09 02:43:34;;;;;;;18.05;8.50;;;20.80;99.90;;;;;;5015029;28;20029;-66
2022/09/09 02:46:30;;;;;;;19.48;7.30;;;20.70;99.90;;;;;;5012719;28;20034;-68
2022/09/09 02:49:01;;;;;;;16.83;8.27;;;20.70;99.90;;;;;;5011066;28;20377;-67
2022/09/09 02:51:43;;;;;;;20.17;8.15;;;20.70;99.90;;;;;;5017511;28;20053;-68
2022/09/09 02:54:39;;;;;;;14.05;7.03;;;20.70;99.90;;;;;;5019696;28;20033;-66
2022/09/09 02:57:17;;;;;;;13.98;8.10;;;20.70;99.90;;;;;;5015035;28;20029;-67
2022/09/09 02:59:47;;;;;;;13.13;7.20;;;20.70;99.90;;;;;;5028976;28;20380;-67
2022/09/09 03:02:13;;;;;;;17.13;8.40;;;20.70;99.90;;;;;;5012932;28;20045;-67
2022/09/09 03:04:44;;;;;;;14.52;8.20;;;20.80;99.90;;;;;;5012657;28;20408;-68
2022/09/09 03:07:11;;;;;;;16.75;8.25;;;20.70;99.90;;;;;;5013019;28;20112;-65
2022/09/09 03:09:38;;;;;;;13.93;8.10;;;20.70;99.90;;;;;;5014240;28;20022;-67
2022/09/09 03:12:04;;;;;;;13.65;7.85;;;20.70;99.90;;;;;;5013888;28;20045;-67
2022/09/09 03:14:32;;;;;;;16.27;8.32;;;20.70;99.90;;;;;;5019734;28;20079;-68
2022/09/09 03:17:00;;;;;;;17.40;8.60;;;20.60;99.90;;;;;;5018534;28;20033;-67
2022/09/09 03:19:29;;;;;;;15.90;8.13;;;;;;;;;;5021991;28;20029;-68
2022/09/09 03:21:55;;;;;;;12.75;7.65;;;20.60;99.90;;;;;;5027477;28;20034;-67
2022/09/09 03:24:22;;;;;;;16.95;8.68;;;20.60;99.90;;;;;;5012718;28;20022;-67
2022/09/09 03:26:50;;;;;;;16.95;9.10;;;20.50;99.90;;;;;;5014250;28;20061;-66
2022/09/09 03:29:18;;;;;;;17.08;9.32;;;20.50;99.90;;;;;;5026614;28;20120;-67
2022/09/09 03:31:45;;;;;;;12.65;7.95;;;20.50;99.90;;;;;;5030378;28;20025;-67
2022/09/09 03:34:11;;;;;;;17.30;8.48;;;20.50;99.90;;;;;;5024686;28;20484;-67
2022/09/09 03:36:37;;;;;;;17.20;8.52;;;20.50;99.90;;;;;;5020066;28;20042;-67
2022/09/09 03:39:04;;;;;;;22.13;9.13;;;20.50;99.90;;;;;;5026601;28;20084;-63
2022/09/09 03:41:30;;;;;;;20.55;8.38;;;20.50;99.90;;;;;;5028587;28;20026;-67
2022/09/09 03:43:58;;;;;;;19.58;10.00;;;20.50;99.90;;;;;;5014713;28;20130;-66
2022/09/09 03:46:26;;;;;;;14.75;8.32;;;20.50;99.90;;;;;;5013183;28;20392;-66
2022/09/09 03:48:53;;;;;;;24.30;9.80;;;20.50;99.90;;;;;;5015913;28;20080;-68
2022/09/09 03:51:19;;;;;;;17.48;8.73;;;20.50;99.90;;;;;;5014497;28;20488;-68
2022/09/09 03:53:46;;;;;;;20.98;8.50;;;20.50;99.90;;;;;;5021666;28;20428;-69
2022/09/09 03:56:12;;;;;;;15.93;8.80;;;20.40;99.90;;;;;;5029929;28;20034;-68
2022/09/09 03:58:38;;;;;;;16.15;8.82;;;20.40;99.90;;;;;;5020541;28;20029;-67
2022/09/09 04:01:17;;;;;;;15.00;8.55;;;20.40;99.90;;;;;;5008094;28;20030;-67
2022/09/09 04:03:44;;;;;;;17.90;9.88;;;20.40;99.90;;;;;;5014815;28;20717;-68
2022/09/09 04:06:12;;;;;;;16.17;8.70;;;20.40;99.90;;;;;;5013139;28;20074;-69
2022/09/09 04:08:38;;;;;;;18.50;8.95;;;20.40;99.90;;;;;;5027310;28;20013;-69
2022/09/09 04:11:06;;;;;;;19.70;8.52;;;20.40;99.90;;;;;;5013807;28;20507;-69
2022/09/09 04:13:34;;;;;;;16.25;9.15;;;20.40;99.90;;;;;;5011719;28;20025;-68
2022/09/09 04:16:03;;;;;;;19.90;9.23;;;20.40;99.90;;;;;;5012769;28;20447;-69
2022/09/09 04:18:30;;;;;;;17.20;8.70;;;20.30;99.90;;;;;;5011003;28;20423;-68
2022/09/09 04:20:57;;;;;;;18.77;10.07;;;20.30;99.90;;;;;;5017856;28;20040;-68
2022/09/09 04:23:31;;;;;;;18.55;8.48;;;20.30;99.90;;;;;;5010710;28;20026;-69
2022/09/09 04:25:59;;;;;;;19.42;8.45;;;20.30;99.90;;;;;;5011061;28;20038;-68
2022/09/09 04:28:28;;;;;;;17.05;9.15;;;20.40;99.90;;;;;;5011157;28;20499;-65
2022/09/09 04:30:56;;;;;;;16.67;9.35;;;20.40;99.90;;;;;;5011452;28;20357;-69
2022/09/09 04:33:26;;;;;;;14.82;8.23;;;20.50;99.90;;;;;;5011081;28;20120;-68
2022/09/09 04:35:53;;;;;;;16.27;9.27;;;20.50;99.90;;;;;;5012206;28;20030;-69
2022/09/09 04:38:22;;;;;;;19.02;8.85;;;20.50;99.90;;;;;;5023554;28;20040;-68
2022/09/09 04:40:51;;;;;;;15.38;9.07;;;20.50;99.90;;;;;;5022659;28;20030;-69
2022/09/09 04:43:18;;;;;;;14.40;8.50;;;20.50;99.90;;;;;;5015645;28;20482;-68
2022/09/09 04:45:48;;;;;;;17.67;9.68;;;20.60;99.90;;;;;;5011831;28;20377;-69
2022/09/09 04:48:14;;;;;;;18.10;9.45;;;20.60;99.90;;;;;;5014892;28;20022;-69
2022/09/09 04:50:40;;;;;;;16.98;8.95;;;20.60;99.90;;;;;;5027493;28;20128;-66
2022/09/09 04:53:09;;;;;;;18.67;9.30;;;20.60;99.90;;;;;;5015906;28;20418;-69
2022/09/09 04:55:37;;;;;;;16.85;9.45;;;20.60;99.90;;;;;;5011241;28;20520;-68
2022/09/09 04:58:05;;;;;;;15.43;9.60;;;20.70;99.90;;;;;;5018497;28;20069;-66
2022/09/09 05:00:32;;;;;;;15.40;8.80;;;20.70;99.90;;;;;;5010177;28;20033;-65
2022/09/09 05:02:57;;;;;;;14.18;8.13;;;20.80;99.90;;;;;;5016036;28;20029;-69
2022/09/09 05:05:25;;;;;;;14.25;7.78;;;20.90;99.90;;;;;;5021683;28;20496;-68
2022/09/09 05:07:52;;;;;;;18.58;9.27;;;20.90;99.90;;;;;;5015841;28;20029;-69
2022/09/09 05:10:18;;;;;;;16.38;7.97;;;21.00;99.90;;;;;;5025851;28;20026;-67
2022/09/09 05:12:53;;;;;;;17.50;8.70;;;21.10;99.90;;;;;;5017034;28;20100;-69
2022/09/09 05:15:20;;;;;;;14.38;8.35;;;21.10;99.90;;;;;;5026539;28;20018;-67
2022/09/09 05:17:46;;;;;;;17.17;8.02;;;21.20;99.90;;;;;;5027106;28;20030;-64
2022/09/09 05:20:13;;;;;;;14.20;8.27;;;21.20;99.90;;;;;;5008746;28;20381;-65
2022/09/09 05:22:40;;;;;;;15.40;8.77;;;21.20;99.90;;;;;;5010477;28;20030;-69
2022/09/09 05:25:07;;;;;;;15.80;8.45;;;21.30;99.90;;;;;;5007703;28;20037;-69
2022/09/09 05:27:34;;;;;;;13.57;8.15;;;21.30;99.90;;;;;;5027047;28;20068;-70
2022/09/09 05:30:00;;;;;;;16.83;8.50;;;21.30;99.90;;;;;;5010928;28;20062;-69
2022/09/09 05:32:26;;;;;;;12.55;7.75;;;21.40;99.90;;;;;;5023059;28;20030;-64
2022/09/09 05:34:52;;;;;;;21.92;9.52;;;21.40;99.90;;;;;;5021265;28;20041;-69
2022/09/09 05:37:18;;;;;;;18.02;10.50;;;21.50;99.90;;;;;;5018198;28;20079;-68
2022/09/09 05:39:44;;;;;;;21.48;13.38;;;21.60;99.90;;;;;;5018787;28;20490;-68
2022/09/09 05:42:11;;;;;;;27.55;17.23;;;21.60;99.90;;;;;;5016327;28;20029;-69
2022/09/09 05:44:38;;;;;;;24.45;13.95;;;21.50;99.90;;;;;;5013664;28;20395;-69
2022/09/09 05:47:04;;;;;;;21.60;10.18;;;21.50;99.90;;;;;;5026548;28;20050;-68
2022/09/09 05:49:29;;;;;;;18.30;9.93;;;21.40;99.90;;;;;;5026780;28;20030;-64
2022/09/09 05:51:55;;;;;;;16.45;9.20;;;21.40;99.90;;;;;;5012974;28;20025;-69
2022/09/09 05:54:23;;;;;;;15.95;9.32;;;21.30;99.90;;;;;;5023373;28;20025;-69
2022/09/09 05:56:52;;;;;;;15.02;9.40;;;21.30;99.90;;;;;;5016314;28;20029;-69
2022/09/09 05:59:19;;;;;;;13.98;8.52;;;21.30;99.90;;;;;;5026801;28;20029;-68
2022/09/09 06:01:45;;;;;;;15.25;8.80;;;21.30;99.90;;;;;;5012727;28;20025;-64
2022/09/09 06:04:24;;;;;;;16.15;9.10;;;21.40;99.90;;;;;;5010145;28;20050;-69
2022/09/09 06:06:50;;;;;;;15.63;8.50;;;21.40;99.90;;;;;;5011661;28;20045;-69
2022/09/09 06:09:18;;;;;;;14.68;8.20;;;21.30;99.90;;;;;;5010251;28;20030;-68
2022/09/09 06:11:44;;;;;;;17.25;9.75;;;21.20;99.90;;;;;;5013611;28;20723;-65
2022/09/09 06:14:11;;;;;;;18.08;9.25;;;21.20;99.90;;;;;;5022735;28;20025;-68
2022/09/09 06:16:39;;;;;;;15.65;9.23;;;21.30;99.90;;;;;;5026863;28;20439;-68
2022/09/09 06:19:12;;;;;;;17.33;9.25;;;21.40;99.90;;;;;;5001116;28;20388;-69
2022/09/09 06:21:38;;;;;;;20.65;8.90;;;21.30;99.90;;;;;;5013503;28;20080;-68
2022/09/09 06:24:07;;;;;;;17.40;8.60;;;21.30;99.90;;;;;;5009917;28;20034;-64
2022/09/09 06:26:36;;;;;;;14.15;8.50;;;21.20;99.90;;;;;;5010672;28;20087;-69
2022/09/09 06:29:04;;;;;;;18.65;8.55;;;21.20;99.90;;;;;;5013618;28;20026;-68
2022/09/09 06:31:33;;;;;;;17.85;9.55;;;21.30;99.90;;;;;;5013942;28;20041;-68
2022/09/09 06:34:07;;;;;;;19.92;8.85;;;21.30;99.90;;;;;;5013735;28;20665;-69
2022/09/09 06:36:36;;;;;;;15.02;8.98;;;21.20;99.90;;;;;;5014009;28;20056;-65
2022/09/09 06:39:03;;;;;;;25.10;9.73;;;21.30;99.90;;;;;;5013848;28;20040;-68
2022/09/09 06:41:32;;;;;;;16.33;8.75;;;21.30;99.90;;;;;;5016187;28;20093;-64
2022/09/09 06:44:00;;;;;;;25.67;10.30;;;21.40;99.90;;;;;;5013552;28;20026;-67
2022/09/09 06:46:39;;;;;;;21.52;10.02;;;21.50;99.90;;;;;;5013626;28;20558;-64
2022/09/09 06:49:07;;;;;;;26.90;10.40;;;21.60;99.90;;;;;;5013523;28;20034;-68
2022/09/09 06:51:42;;;;;;;19.98;10.18;;;21.60;99.90;;;;;;5016621;28;20026;-66
2022/09/09 06:54:11;;;;;;;18.77;10.05;;;21.70;99.90;;;;;;5013365;28;20030;-68
2022/09/09 06:56:41;;;;;;;22.40;10.52;;;21.70;99.90;;;;;;5013345;28;20032;-69
2022/09/09 06:59:11;;;;;;;21.33;9.85;;;21.80;99.90;;;;;;5012061;28;20471;-68
2022/09/09 07:01:51;;;;;;;17.95;9.20;;;21.80;99.90;;;;;;5016590;28;20060;-68
2022/09/09 07:04:17;;;;;;;13.77;8.40;;;21.90;99.90;;;;;;5018282;28;20128;-65
2022/09/09 07:06:46;;;;;;;17.85;9.32;;;22.00;99.90;;;;;;5012765;28;20479;-68
2022/09/09 07:09:23;;;;;;;24.17;10.25;;;22.00;99.90;;;;;;5022271;28;20110;-68
2022/09/09 07:11:54;;;;;;;21.55;8.52;;;22.20;99.90;;;;;;5015522;28;20034;-68
2022/09/09 07:14:22;;;;;;;18.85;8.38;;;22.30;99.90;;;;;;5012857;28;20062;-68
2022/09/09 07:16:53;;;;;;;19.23;8.60;;;22.20;99.90;;;;;;5011691;28;20120;-67
2022/09/09 07:19:19;;;;;;;14.40;8.57;;;22.30;99.90;;;;;;5015206;28;20168;-67
2022/09/09 07:21:50;;;;;;;12.60;8.50;;;22.40;99.90;;;;;;5016822;28;20037;-69
2022/09/09 07:24:18;;;;;;;17.63;8.30;;;22.30;99.90;;;;;;5012344;28;20030;-69
2022/09/09 07:26:46;;;;;;;13.55;6.57;;;22.30;99.90;;;;;;5028593;28;20035;-68
2022/09/09 07:29:13;;;;;;;21.83;8.10;;;22.20;99.90;;;;;;5013158;28;20137;-67
2022/09/09 07:31:41;;;;;;;19.67;7.85;;;22.10;99.90;;;;;;5021823;28;20025;-69
2022/09/09 07:34:11;;;;;;;12.95;8.05;;;22.10;99.90;;;;;;5029603;28;20368;-66
2022/09/09 07:36:39;;;;;;;16.73;7.18;;;22.10;99.90;;;;;;5013009;28;20088;-69
2022/09/09 07:39:10;;;;;;;14.43;7.60;;;22.00;99.90;;;;;;5013746;28;20025;-68
2022/09/09 07:41:47;;;;;;;12.90;7.07;;;22.10;99.90;;;;;;5012203;28;20122;-68
2022/09/09 07:44:21;;;;;;;12.70;6.75;;;22.20;99.90;;;;;;5012460;28;20029;-68
2022/09/09 07:46:50;;;;;;;12.25;6.60;;;22.30;99.90;;;;;;5012566;28;20044;-69
2022/09/09 07:49:20;;;;;;;16.73;7.10;;;22.40;99.90;;;;;;5015085;28;20460;-69
2022/09/09 07:51:49;;;;;;;10.88;6.82;;;22.50;99.90;;;;;;5024273;28;20125;-68
2022/09/09 07:54:20;;;;;;;16.48;6.85;;;22.70;99.90;;;;;;5011271;28;20026;-68
2022/09/09 07:56:49;;;;;;;13.45;7.47;;;22.80;99.90;;;;;;4996793;28;20076;-68
2022/09/09 07:59:16;;;;;;;14.98;7.80;;;22.90;99.90;;;;;;5013222;28;20368;-69
2022/09/09 08:01:50;;;;;;;14.18;5.93;;;23.10;99.90;;;;;;5011365;28;20052;-65
2022/09/09 08:04:20;;;;;;;10.20;6.20;;;23.40;99.90;;;;;;5020916;28;20056;-67
2022/09/09 08:06:55;;;;;;;14.40;6.35;;;23.60;99.90;;;;;;5011448;28;20068;-67
2022/09/09 08:09:26;;;;;;;12.30;6.40;;;23.70;99.90;;;;;;5022092;28;20018;-68
2022/09/09 08:11:53;;;;;;;11.25;6.75;;;23.70;99.90;;;;;;5010105;28;20064;-66
2022/09/09 08:14:19;;;;;;;13.32;6.53;;;23.80;99.90;;;;;;5018792;28;20037;-68
2022/09/09 08:16:47;;;;;;;15.77;6.93;;;24.00;99.90;;;;;;5016639;28;20129;-68
2022/09/09 08:19:16;;;;;;;11.15;6.63;;;24.30;99.90;;;;;;5010096;28;20476;-66
2022/09/09 08:21:45;;;;;;;14.77;7.43;;;24.60;99.90;;;;;;5013376;28;20052;-64
2022/09/09 08:24:12;;;;;;;15.07;8.23;;;24.60;99.90;;;;;;5014308;28;20036;-67
2022/09/09 08:26:41;;;;;;;15.90;7.40;;;24.70;99.90;;;;;;5023360;28;20516;-67
2022/09/09 08:29:10;;;;;;;12.05;7.82;;;25.00;99.90;;;;;;5010044;28;20053;-67
2022/09/09 08:31:38;;;;;;;13.75;6.93;;;;;;;;;;5007849;28;20027;-67
2022/09/09 08:34:07;;;;;;;14.35;8.40;;;25.30;99.90;;;;;;5024298;28;20072;-67
2022/09/09 08:36:40;;;;;;;16.23;9.48;;;25.80;99.90;;;;;;5022792;28;20475;-68
2022/09/09 08:39:08;;;;;;;13.40;7.70;;;25.90;99.90;;;;;;5026473;28;20522;-66
2022/09/09 08:41:53;;;;;;;13.60;7.88;;;26.10;99.90;;;;;;5013746;28;20037;-68
2022/09/09 08:44:34;;;;;;;14.32;9.35;;;26.20;99.90;;;;;;5022671;28;20092;-68
2022/09/09 08:47:20;;;;;;;16.15;9.05;;;26.40;99.90;;;;;;5009887;28;20038;-68
2022/09/09 08:50:24;;;;;;;14.63;8.38;;;26.40;99.90;;;;;;5025128;28;20038;-64
2022/09/09 08:53:02;;;;;;;12.70;7.88;;;26.40;99.90;;;;;;5025512;28;20033;-65
2022/09/09 08:55:35;;;;;;;13.63;8.50;;;26.50;99.90;;;;;;5009638;28;20028;-67
2022/09/09 08:58:17;;;;;;;13.82;8.50;;;26.50;99.90;;;;;;5010819;28;20108;-67
2022/09/09 09:01:24;;;;;;;15.07;8.23;;;26.60;99.90;;;;;;5024922;28;20026;-66
2022/09/09 09:04:00;;;;;;;18.00;8.25;;;26.50;99.90;;;;;;5025194;28;20057;-68
2022/09/09 09:06:46;;;;;;;13.05;8.02;;;26.50;99.90;;;;;;5024012;28;20042;-67
2022/09/09 09:09:15;;;;;;;13.18;8.48;;;26.40;99.90;;;;;;5011364;28;20029;-69
2022/09/09 09:11:50;;;;;;;14.48;9.23;;;26.30;99.90;;;;;;5011649;28;20076;-68
2022/09/09 09:14:25;;;;;;;13.45;7.75;;;26.40;99.90;;;;;;5024709;28;20034;-67
2022/09/09 09:17:09;;;;;;;13.30;8.25;;;26.20;99.90;;;;;;5019467;28;20080;-66
2022/09/09 09:19:38;;;;;;;13.35;7.78;;;26.30;99.90;;;;;;5007820;28;20057;-69
2022/09/09 09:22:31;;;;;;;15.43;9.98;;;26.40;99.90;;;;;;5012771;28;20530;-69
2022/09/09 09:25:18;;;;;;;12.85;7.25;;;26.60;99.90;;;;;;5010320;28;20117;-68
2022/09/09 09:28:05;;;;;;;13.73;7.10;;;26.80;99.90;;;;;;5010447;28;20490;-69
2022/09/09 09:30:49;;;;;;;13.82;7.60;;;26.90;99.90;;;;;;5010405;28;20081;-69
2022/09/09 09:33:21;;;;;;;14.40;8.18;;;26.90;99.90;;;;;;5008611;28;20030;-69
2022/09/09 09:35:50;;;;;;;11.13;7.90;;;;;;;;;;5021450;28;20026;-69
2022/09/09 09:38:35;;;;;;;14.27;7.18;;;27.10;99.90;;;;;;5009732;28;20036;-69
2022/09/09 09:41:02;;;;;;;12.98;7.70;;;27.00;99.90;;;;;;5009780;28;20113;-67
2022/09/09 09:43:34;;;;;;;11.38;7.60;;;27.00;99.90;;;;;;5010316;28;20535;-70
2022/09/09 09:46:19;;;;;;;12.38;7.03;;;26.50;99.90;;;;;;5012955;28;20049;-69
2022/09/09 09:49:01;;;;;;;12.80;8.07;;;26.90;99.90;;;;;;5014807;28;20037;-69
2022/09/09 09:51:30;;;;;;;12.43;7.53;;;27.10;99.90;;;;;;5024273;28;20104;-67
2022/09/09 09:54:27;;;;;;;10.38;6.85;;;27.20;99.90;;;;;;5014192;28;20080;-68
2022/09/09 09:57:07;;;;;;;10.95;6.40;;;27.20;99.90;;;;;;5007931;28;20026;-68
2022/09/09 09:59:35;;;;;;;11.77;6.55;;;27.00;99.90;;;;;;5009300;28;20057;-68
2022/09/09 10:02:25;;;;;;;13.38;7.07;;;27.10;99.90;;;;;;5025042;28;20493;-70
2022/09/09 10:05:15;;;;;;;13.75;7.40;;;27.20;99.90;;;;;;5019775;28;20050;-67
2022/09/09 10:07:45;;;;;;;9.68;6.55;;;27.40;99.90;;;;;;5012148;28;20093;-64
2022/09/09 10:10:56;;;;;;;15.10;7.20;;;27.30;99.90;;;;;;5017417;28;20029;-67
2022/09/09 10:13:54;;;;;;;14.02;7.28;;;27.40;99.90;;;;;;5011995;28;20038;-69
2022/09/09 10:16:29;;;;;;;15.13;7.57;;;27.10;99.90;;;;;;5011150;28;20467;-71
2022/09/09 10:19:27;;;;;;;10.55;6.22;;;26.90;99.90;;;;;;5014248;28;20416;-70
2022/09/09 10:21:55;;;;;;;10.10;6.53;;;26.90;99.90;;;;;;5016106;28;20066;-70
2022/09/09 10:24:49;;;;;;;17.52;7.47;;;27.10;99.90;;;;;;5011561;28;20041;-70
2022/09/09 10:27:28;;;;;;;11.68;6.63;;;27.20;99.90;;;;;;5006896;28;20104;-70
2022/09/09 10:30:02;;;;;;;13.55;6.07;;;27.50;99.90;;;;;;5003220;28;20030;-71
2022/09/09 10:32:41;;;;;;;10.57;6.22;;;27.40;99.90;;;;;;5012091;28;20045;-71
2022/09/09 10:35:27;;;;;;;15.23;6.50;;;27.40;99.90;;;;;;5012246;28;20026;-71
2022/09/09 10:37:58;;;;;;;16.20;7.57;;;27.60;99.90;;;;;;5012663;28;20129;-72
2022/09/09 10:40:33;;;;;;;12.20;6.32;;;27.70;99.90;;;;;;5012852;28;20438;-71
2022/09/09 10:43:17;;;;;;;9.43;5.50;;;27.60;99.90;;;;;;5012277;28;20459;-71
2022/09/09 10:46:08;;;;;;;17.73;6.70;;;27.60;99.90;;;;;;5012090;28;20046;-71
2022/09/09 10:49:04;;;;;;;10.70;5.50;;;27.60;99.90;;;;;;5012337;28;20026;-71
2022/09/09 10:52:17;;;;;;;10.02;5.57;;;27.80;99.90;;;;;;5012277;28;20140;-72
2022/09/09 10:54:56;;;;;;;15.07;5.47;;;28.10;99.90;;;;;;5011354;28;20053;-70
2022/09/09 10:57:47;;;;;;;10.93;5.78;;;27.90;99.90;;;;;;5012868;28;20153;-69
2022/09/09 11:00:20;;;;;;;11.25;5.82;;;27.80;99.90;;;;;;5014578;28;20103;-71
2022/09/09 11:03:00;;;;;;;8.68;5.30;;;27.60;99.90;;;;;;5014260;28;20061;-67
2022/09/09 11:05:46;;;;;;;19.67;5.63;;;27.80;99.90;;;;;;5014445;28;20046;-71
2022/09/09 11:08:15;;;;;;;8.75;4.82;;;27.90;99.90;;;;;;5014009;28;20018;-71
2022/09/09 11:11:03;;;;;;;13.23;5.10;;;28.00;99.90;;;;;;5027789;28;20030;-71
2022/09/09 11:14:01;;;;;;;10.13;4.60;;;27.90;99.90;;;;;;5014140;28;20032;-72
2022/09/09 11:16:45;;;;;;;8.85;5.13;;;27.90;99.60;;;;;;5014495;28;20073;-71
2022/09/09 11:19:14;;;;;;;17.58;5.07;;;27.80;99.90;;;;;;5013861;28;20049;-72
2022/09/09 11:21:49;;;;;;;10.75;4.80;;;27.90;99.90;;;;;;5012915;28;20049;-66
2022/09/09 11:24:33;;;;;;;13.55;5.35;;;27.90;99.90;;;;;;5014098;28;20387;-72
2022/09/09 11:27:13;;;;;;;8.50;5.05;;;28.10;99.90;;;;;;5013442;28;20034;-68
2022/09/09 11:29:44;;;;;;;9.85;5.32;;;28.20;99.90;;;;;;5013919;28;20385;-70
2022/09/09 11:32:34;;;;;;;7.90;5.25;;;28.20;99.90;;;;;;5013487;28;20025;-71
2022/09/09 11:35:22;;;;;;;9.00;5.03;;;27.90;99.90;;;;;;5012332;28;20088;-72
2022/09/09 11:38:21;;;;;;;12.20;5.00;;;27.70;99.90;;;;;;5013143;28;20526;-71
2022/09/09 11:40:59;;;;;;;9.82;4.95;;;27.50;99.90;;;;;;5013006;28;20072;-71
2022/09/09 11:44:10;;;;;;;11.23;5.05;;;27.20;99.90;;;;;;5012070;28;20065;-71
2022/09/09 11:46:38;;;;;;;10.85;5.20;;;27.20;99.90;;;;;;4990699;28;20061;-70
2022/09/09 11:49:23;;;;;;;10.52;5.60;;;27.20;99.90;;;;;;4991056;28;20117;-71
2022/09/09 11:51:49;;;;;;;13.52;5.32;;;27.20;99.90;;;;;;4990069;28;20073;-71
2022/09/09 11:54:32;;;;;;;7.35;4.72;;;27.30;99.90;;;;;;4990372;28;20030;-71
2022/09/09 11:56:58;;;;;;;12.07;5.63;;;27.50;99.90;;;;;;4990382;28;20034;-70
2022/09/09 11:59:30;;;;;;;10.65;5.13;;;27.80;99.90;;;;;;4990660;28;20567;-65
2022/09/09 12:01:57;;;;;;;12.18;4.30;;;;;;;;;;4990490;28;20034;-72
2022/09/09 12:04:25;;;;;;;14.02;4.50;;;28.30;99.90;;;;;;4990147;28;20073;-71
2022/09/09 12:06:51;;;;;;;10.98;4.88;;;28.10;99.80;;;;;;4990737;28;20034;-71
2022/09/09 12:09:23;;;;;;;9.20;4.10;;;28.30;99.90;;;;;;4998776;28;20045;-69
2022/09/09 12:11:49;;;;;;;8.85;4.95;;;28.20;99.90;;;;;;4994096;28;20050;-71
2022/09/09 12:14:36;;;;;;;8.57;5.05;;;;;;;;;;4990265;28;20504;-71
2022/09/09 12:17:22;;;;;;;5.75;4.93;;;28.30;99.90;;;;;;4999480;28;20532;-70
2022/09/09 12:20:20;;;;;;;10.88;6.22;;;28.70;99.90;;;;;;5012865;28;20018;-66
2022/09/09 12:23:24;;;;;;;8.60;5.22;;;28.80;99.90;;;;;;5012904;28;20508;-67
2022/09/09 12:26:26;;;;;;;7.93;5.35;;;28.30;99.90;;;;;;5012663;28;20037;-72
2022/09/09 12:29:01;;;;;;;10.52;5.15;;;28.60;97.90;;;;;;5005000;28;20096;-71
2022/09/09 12:31:49;;;;;;;11.52;6.75;;;28.50;95.80;;;;;;5006896;28;20136;-71
2022/09/09 12:34:20;;;;;;;8.93;5.30;;;28.60;97.60;;;;;;5009990;28;20384;-72
2022/09/09 12:36:53;;;;;;;13.03;4.93;;;28.50;98.20;;;;;;5009345;28;20412;-72
2022/09/09 12:39:45;;;;;;;12.52;5.38;;;28.60;93.90;;;;;;5011195;28;20267;-72
2022/09/09 12:42:20;;;;;;;9.77;5.25;;;28.60;98.80;;;;;;5012371;28;20168;-70
2022/09/09 12:45:16;;;;;;;9.20;4.82;;;28.40;98.10;;;;;;5011201;28;20502;-72
2022/09/09 12:48:18;;;;;;;9.55;4.88;;;28.40;97.30;;;;;;5012457;28;20033;-72
2022/09/09 12:50:47;;;;;;;8.10;4.90;;;28.60;98.30;;;;;;4990555;28;20045;-72
2022/09/09 12:53:26;;;;;;;8.93;4.43;;;28.30;96.70;;;;;;4990660;28;20353;-72
2022/09/09 12:55:59;;;;;;;8.48;5.00;;;28.40;98.00;;;;;;4990672;28;20637;-72
2022/09/09 12:58:28;;;;;;;11.15;5.22;;;28.10;99.90;;;;;;4973897;28;20448;-71
2022/09/09 13:00:59;;;;;;;14.40;6.00;;;27.90;98.40;;;;;;4990079;28;20034;-71
2022/09/09 13:03:26;;;;;;;12.95;5.28;;;27.80;99.30;;;;;;4990574;28;20500;-72
2022/09/09 13:05:53;;;;;;;8.00;4.68;;;28.00;99.90;;;;;;4989643;28;20054;-72
2022/09/09 13:08:22;;;;;;;14.73;5.30;;;28.00;99.90;;;;;;4990740;28;20162;-72
2022/09/09 13:11:00;;;;;;;13.10;5.88;;;27.90;99.60;;;;;;5001479;28;20033;-71
2022/09/09 13:13:34;;;;;;;7.07;4.55;;;28.00;99.90;;;;;;4989687;28;20034;-72
2022/09/09 13:16:01;;;;;;;10.30;5.35;;;28.20;99.90;;;;;;4989813;28;20394;-71
2022/09/09 13:18:46;;;;;;;15.85;5.30;;;28.20;99.90;;;;;;4989285;28;20033;-71